Amissville, Virginia
Current Conditions -  °F | °C
As of 5:35 AM on Thursday 27 Nov 2014 (Local Time) from KCJR Reporting Station
Haze Haze  
Wind Chill:   Ceiling: 3500
Heat Index:   Visibility: 2mi
Dew Point:   Wind: 0mph
Humidity: 100%   Direction: NA
Pressure: 30.03"   Gusts: NA
Location:  38.67°N, 77.99°W
Report Text: KCJR 271035Z AUTO 00000KT 2SM BR BKN035 BKN045 OVC055 01/01 A3003 RMK AO2
Loading
Personal Weather Stations






























Interactive Weather Map New forecast layout! Learn more

10-Day Weather Forecast

Advertisements
Track Severe Weather on mobile